Grissom ARB Airport
KGUS : rendu visible

Aérodrome :











RETROUVEZ-NOUS SUR...

 
LOGIN :

S'inscrire | Disclaimer

   EN    FR    IT 

 









Légende :    VFR   VFR Marginal   IFR   IFR Intensif   IFR Très Intensif
Visi : 
Plafond : 
>= 8 km
>= 3000ft
5 à 8 km
1000 à 3000 ft
1500m à 5 km
500 à 1000 ft
800 à 1500m
200 à 500 ft
< 800m
< 200 ft
Symboles :   Orages  Brouillard  Fortes neiges  Fortes précipitations  Vent > 20 kt






- Altitude de l'aérodrome : 812 ft


KGUS - Grissom ARB

DERNIER METAR :
  • 162256Z AUTO 08008KT 10SM CLR 02/M02 A3027 RMK AO2 SLP263 T00171017 $

METARs EXPIRÉS :
  • 162156Z AUTO 07007KT 10SM CLR 03/M02 A3028 RMK AO2 SLP265 T00321016 $
  • 162121Z AUTO 07009KT 10SM SCT029 04/M01 A3028 RMK AO2 SLP266 $
  • 162111Z AUTO 06010KT 10SM BKN029 04/M01 A3028 RMK AO2 BKN V FEW SLP266 $
  • 162056Z AUTO 09008KT 10SM FEW029 05/M01 A3029 RMK AO2 SLP269 T00471013 56021 $

TAF TAF KGUS
Valide du 16 à 19h jusqu'au 18 à 01h UTC


161900Z 1619/1801 VRB06KT 9999 BKN020 QNH2992INS WND 12006KT AFT 1702
BECMG 1721/1722 17005KT 8000 -RA BKN050 QNH2992INS TX05/1619Z TNM02/1707Z



MET'MAP, la Météo Aéronautique d'un coup d'oeil ! - Copyright ORBIFLY Décembre 2007 - Disclaimer

ORBIFLY MET'MAP TEAM :

Programmation & Développement : Alexandra Zaïnal
Conception & Développement : Baudouin d'Aumeries
Co-Programmation & Développement : Marc-Olivier Méhu
Soutien technique & logistique : Manuel Goepfert

Contact : metmap@orbifly.com




SOURCES & CREDITS :

   NOAA       Earth
Advisory